createdAt,value
2023-02-03T00:00:07.727Z,-1.35
2023-02-03T00:03:02.431Z,-1.29
2023-02-03T00:05:31.787Z,-1.27
2023-02-03T00:07:59.744Z,-1.26
2023-02-03T00:10:27.978Z,-1.17
2023-02-03T00:12:57.666Z,-1.12
2023-02-03T00:15:25.599Z,-1.08
2023-02-03T00:17:53.672Z,-1.04
2023-02-03T00:20:22.508Z,-1.05
2023-02-03T00:22:50.354Z,-1.06
2023-02-03T00:25:18.952Z,-1.07
2023-02-03T00:27:47.294Z,-1.07
2023-02-03T00:30:15.273Z,-1.03
2023-02-03T00:32:43.108Z,-1.03
2023-02-03T00:35:12.824Z,-0.98
2023-02-03T00:37:40.741Z,-0.96
2023-02-03T00:40:09.558Z,-0.93
2023-02-03T00:42:37.605Z,-0.92
2023-02-03T00:45:06.698Z,-0.94
2023-02-03T00:47:34.752Z,-0.92
2023-02-03T00:50:02.686Z,-0.92
2023-02-03T00:52:30.629Z,-0.93
2023-02-03T00:54:58.668Z,-0.93
2023-02-03T00:57:26.474Z,-0.90
2023-02-03T00:59:54.957Z,-0.87
2023-02-03T01:02:22.952Z,-0.91
2023-02-03T01:04:50.830Z,-0.93
2023-02-03T01:07:19.202Z,-0.93
2023-02-03T01:09:47.238Z,-0.88
2023-02-03T01:12:15.019Z,-0.84
2023-02-03T01:14:42.789Z,-0.84
2023-02-03T01:17:10.650Z,-0.86
2023-02-03T01:19:38.523Z,-0.87
2023-02-03T01:22:06.481Z,-0.88
2023-02-03T01:24:34.431Z,-0.88
2023-02-03T01:27:02.353Z,-0.90
2023-02-03T01:29:30.318Z,-0.90
2023-02-03T01:31:58.442Z,-0.91
2023-02-03T01:34:26.401Z,-0.92
2023-02-03T01:36:54.509Z,-0.89
2023-02-03T01:39:23.016Z,-0.92
2023-02-03T01:41:50.867Z,-0.92
2023-02-03T01:44:53.183Z,-0.96
2023-02-03T01:47:29.741Z,-1.01
2023-02-03T01:50:13.683Z,-1.04
2023-02-03T01:52:44.311Z,-1.10
2023-02-03T01:55:17.601Z,-1.19
2023-02-03T01:57:56.433Z,-1.25
2023-02-03T02:00:24.809Z,-1.24
2023-02-03T02:03:00.598Z,-1.23
2023-02-03T02:05:37.416Z,-1.23
2023-02-03T02:08:07.195Z,-1.19
2023-02-03T02:10:35.429Z,-1.16
2023-02-03T02:13:06.037Z,-1.15
2023-02-03T02:15:44.465Z,-1.11
2023-02-03T02:18:32.704Z,-1.09
2023-02-03T02:21:20.225Z,-1.08
2023-02-03T02:24:26.775Z,-1.04
2023-02-03T02:27:02.821Z,-1.02
2023-02-03T02:29:37.097Z,-0.99
2023-02-03T02:32:26.233Z,-0.96
2023-02-03T02:35:06.349Z,-0.94
2023-02-03T02:37:55.749Z,-0.97
2023-02-03T02:40:30.038Z,-0.95
2023-02-03T02:43:05.008Z,-0.95
2023-02-03T02:45:44.778Z,-0.89
2023-02-03T02:48:24.626Z,-0.82
2023-02-03T02:50:56.777Z,-0.78
2023-02-03T02:53:29.360Z,-0.76
2023-02-03T02:55:59.864Z,-0.74
2023-02-03T02:58:31.667Z,-0.73
2023-02-03T03:00:59.653Z,-0.69
2023-02-03T03:03:27.631Z,-0.63
2023-02-03T03:06:05.720Z,-0.64
2023-02-03T03:09:08.114Z,-0.66
2023-02-03T03:11:47.532Z,-0.60
2023-02-03T03:14:19.421Z,-0.57
2023-02-03T03:16:57.683Z,-0.56
2023-02-03T03:19:33.835Z,-0.51
2023-02-03T03:22:05.982Z,-0.50
2023-02-03T03:24:40.526Z,-0.45
2023-02-03T03:27:15.366Z,-0.42
2023-02-03T03:30:18.814Z,-0.44
2023-02-03T03:32:46.887Z,-0.45
2023-02-03T03:35:15.318Z,-0.48
2023-02-03T03:38:00.795Z,-0.48
2023-02-03T03:40:51.766Z,-0.50
2023-02-03T03:43:29.803Z,-0.48
2023-02-03T03:46:10.587Z,-0.45
2023-02-03T03:48:47.997Z,-0.44
2023-02-03T03:51:30.386Z,-0.42
2023-02-03T03:54:04.068Z,-0.42
2023-02-03T03:56:39.924Z,-0.38
2023-02-03T03:59:11.536Z,-0.31
2023-02-03T04:01:41.206Z,-0.26
2023-02-03T04:04:11.545Z,-0.22
2023-02-03T04:06:39.997Z,-0.18
2023-02-03T04:09:08.368Z,-0.12
2023-02-03T04:11:54.672Z,-0.10
2023-02-03T04:14:22.630Z,-0.11
2023-02-03T04:16:50.604Z,-0.12
2023-02-03T04:19:18.472Z,-0.12
2023-02-03T04:21:46.344Z,-0.09
2023-02-03T04:24:14.657Z,-0.06
2023-02-03T04:26:43.070Z,-0.02
2023-02-03T04:29:10.928Z,0.00
2023-02-03T04:31:39.099Z,0.03
2023-02-03T04:34:07.130Z,0.01
2023-02-03T04:36:35.010Z,0.02
2023-02-03T04:39:03.354Z,0.01
2023-02-03T04:41:31.285Z,0.10
2023-02-03T04:43:59.095Z,0.11
2023-02-03T04:46:26.881Z,0.13
2023-02-03T04:48:54.658Z,0.08
2023-02-03T04:51:22.450Z,0.12
2023-02-03T04:53:50.468Z,0.11
2023-02-03T04:56:18.245Z,0.14
2023-02-03T04:58:46.155Z,0.18
2023-02-03T05:01:14.144Z,0.20
2023-02-03T05:03:42.062Z,0.26
2023-02-03T05:06:10.162Z,0.27
2023-02-03T05:08:37.923Z,0.26
2023-02-03T05:11:06.663Z,0.26
2023-02-03T05:13:34.636Z,0.23
2023-02-03T05:16:02.684Z,0.24
2023-02-03T05:18:30.565Z,0.30
2023-02-03T05:20:58.461Z,0.37
2023-02-03T05:23:26.313Z,0.43
2023-02-03T05:25:54.107Z,0.48
2023-02-03T05:28:22.014Z,0.48
2023-02-03T05:30:50.010Z,0.55
2023-02-03T05:33:18.056Z,0.62
2023-02-03T05:35:46.088Z,0.66
2023-02-03T05:38:13.897Z,0.66
2023-02-03T05:41:00.556Z,0.67
2023-02-03T05:43:28.767Z,0.71
2023-02-03T05:46:03.271Z,0.72
2023-02-03T05:48:32.248Z,0.73
2023-02-03T05:51:00.521Z,0.75
2023-02-03T05:53:28.405Z,0.75
2023-02-03T05:55:56.192Z,0.76
2023-02-03T05:58:24.369Z,0.79
2023-02-03T06:00:53.026Z,0.82
2023-02-03T06:03:21.085Z,0.84
2023-02-03T06:05:49.099Z,0.86
2023-02-03T06:08:17.240Z,0.91
2023-02-03T06:10:45.327Z,0.93
2023-02-03T06:13:15.496Z,0.96
2023-02-03T06:15:44.319Z,0.99
2023-02-03T06:18:12.207Z,1.00
2023-02-03T06:20:40.136Z,1.02
2023-02-03T06:23:08.280Z,1.05
2023-02-03T06:25:36.174Z,1.10
2023-02-03T06:28:04.185Z,1.13
2023-02-03T06:30:32.186Z,1.16
2023-02-03T06:33:00.337Z,1.20
2023-02-03T06:35:28.543Z,1.20
2023-02-03T06:37:56.706Z,1.24
2023-02-03T06:40:24.844Z,1.26
2023-02-03T06:42:53.260Z,1.29
2023-02-03T06:45:21.190Z,1.26
2023-02-03T06:47:48.992Z,1.23
2023-02-03T06:50:17.042Z,1.24
2023-02-03T06:52:45.136Z,1.25
2023-02-03T06:55:13.067Z,1.27
2023-02-03T06:57:45.813Z,1.35
2023-02-03T07:00:18.621Z,1.39
2023-02-03T07:02:52.933Z,1.40
2023-02-03T07:05:22.505Z,1.43
2023-02-03T07:07:51.685Z,1.44
2023-02-03T07:10:19.798Z,1.42
2023-02-03T07:12:48.135Z,1.44
2023-02-03T07:15:17.034Z,1.41
2023-02-03T07:17:51.420Z,1.36
2023-02-03T07:20:19.730Z,1.34
2023-02-03T07:22:52.331Z,1.34
2023-02-03T07:25:20.586Z,1.33
2023-02-03T07:27:48.622Z,1.35
2023-02-03T07:30:17.262Z,1.37
2023-02-03T07:32:53.000Z,1.37
2023-02-03T07:35:21.571Z,1.43
2023-02-03T07:37:49.338Z,1.44
2023-02-03T07:40:17.849Z,1.43
2023-02-03T07:42:48.054Z,1.39
2023-02-03T07:45:18.034Z,1.36
2023-02-03T07:47:45.861Z,1.34
2023-02-03T07:50:13.887Z,1.29
2023-02-03T07:52:41.918Z,1.29
2023-02-03T07:55:10.283Z,1.29
2023-02-03T07:57:43.500Z,1.25
2023-02-03T08:00:14.036Z,1.22
2023-02-03T08:02:43.818Z,1.27
2023-02-03T08:05:13.105Z,1.27
2023-02-03T08:07:41.773Z,1.31
2023-02-03T08:10:11.594Z,1.33
2023-02-03T08:12:40.171Z,1.36
2023-02-03T08:15:08.864Z,1.40
2023-02-03T08:17:40.010Z,1.38
2023-02-03T08:20:09.574Z,1.39
2023-02-03T08:22:37.424Z,1.37
2023-02-03T08:25:05.844Z,1.37
2023-02-03T08:27:33.802Z,1.38
2023-02-03T08:30:02.108Z,1.35
2023-02-03T08:32:29.956Z,1.31
2023-02-03T08:34:57.899Z,1.31
2023-02-03T08:37:26.568Z,1.31
2023-02-03T08:39:54.588Z,1.29
2023-02-03T08:42:22.622Z,1.32
2023-02-03T08:44:50.649Z,1.37
2023-02-03T08:47:18.855Z,1.38
2023-02-03T08:49:46.952Z,1.39
2023-02-03T08:52:18.017Z,1.41
2023-02-03T08:54:47.650Z,1.47
2023-02-03T08:57:16.149Z,1.50
2023-02-03T08:59:44.936Z,1.55
2023-02-03T09:02:19.465Z,1.54
2023-02-03T09:04:49.237Z,1.57
2023-02-03T09:07:17.825Z,1.57
2023-02-03T09:09:45.980Z,1.60
2023-02-03T09:12:14.193Z,1.55
2023-02-03T09:14:42.093Z,1.54
2023-02-03T09:17:10.965Z,1.55
2023-02-03T09:19:38.893Z,1.60
2023-02-03T09:22:06.869Z,1.60
2023-02-03T09:24:36.358Z,1.62
2023-02-03T09:27:04.331Z,1.64
2023-02-03T09:29:32.572Z,1.63
2023-02-03T09:32:02.460Z,1.63
2023-02-03T09:34:30.423Z,1.62
2023-02-03T09:36:58.515Z,1.66
2023-02-03T09:39:26.423Z,1.70
2023-02-03T09:42:28.664Z,1.69
2023-02-03T09:45:06.036Z,1.70
2023-02-03T09:47:38.716Z,1.70
2023-02-03T09:50:21.376Z,1.71
2023-02-03T09:52:50.970Z,1.74
2023-02-03T09:55:40.045Z,1.73
2023-02-03T09:58:18.461Z,1.76
2023-02-03T10:00:56.290Z,1.79
2023-02-03T10:03:35.052Z,1.86
2023-02-03T10:06:13.955Z,1.91
2023-02-03T10:08:54.171Z,1.89
2023-02-03T10:11:38.886Z,1.85
2023-02-03T10:14:09.637Z,1.82
2023-02-03T10:16:46.879Z,1.81
2023-02-03T10:19:23.237Z,1.75
2023-02-03T10:21:59.062Z,1.75
2023-02-03T10:24:48.810Z,1.76
2023-02-03T10:27:21.171Z,1.68
2023-02-03T10:29:58.164Z,1.73
2023-02-03T10:32:27.858Z,1.73
2023-02-03T10:34:56.551Z,1.73
2023-02-03T10:37:33.911Z,1.76
2023-02-03T10:40:02.535Z,1.83
2023-02-03T10:42:52.682Z,1.87
2023-02-03T10:45:20.959Z,1.84
2023-02-03T10:47:54.029Z,1.84
2023-02-03T10:50:31.493Z,1.86
2023-02-03T10:53:24.209Z,1.90
2023-02-03T10:56:02.794Z,2.00
2023-02-03T10:58:33.472Z,2.04
2023-02-03T11:01:06.428Z,2.14
2023-02-03T11:03:34.917Z,2.22
2023-02-03T11:06:10.052Z,2.19
2023-02-03T11:08:41.694Z,2.27
2023-02-03T11:11:14.590Z,2.36
2023-02-03T11:13:42.602Z,2.45
2023-02-03T11:16:20.959Z,2.48
2023-02-03T11:18:55.237Z,2.54
2023-02-03T11:21:25.190Z,2.61
2023-02-03T11:24:04.969Z,2.68
2023-02-03T11:26:40.474Z,2.75
2023-02-03T11:29:18.429Z,2.79
2023-02-03T11:31:53.453Z,2.86
2023-02-03T11:34:31.702Z,2.94
2023-02-03T11:37:27.042Z,3.04
2023-02-03T11:40:07.344Z,3.00
2023-02-03T11:42:37.714Z,3.08
2023-02-03T11:45:25.332Z,3.17
2023-02-03T11:47:56.315Z,3.28
2023-02-03T11:50:49.845Z,3.39
2023-02-03T11:53:57.204Z,3.49
2023-02-03T11:56:52.257Z,3.57
2023-02-03T11:59:25.968Z,3.64
2023-02-03T12:02:09.871Z,3.78
2023-02-03T12:04:47.028Z,3.94
2023-02-03T12:07:47.016Z,4.14
2023-02-03T12:10:27.619Z,4.36
2023-02-03T12:13:35.112Z,4.53
2023-02-03T12:16:27.918Z,4.64
2023-02-03T12:19:27.655Z,4.72
2023-02-03T12:22:17.245Z,4.82
2023-02-03T12:25:11.025Z,4.89
2023-02-03T12:27:49.850Z,4.95
2023-02-03T12:30:39.662Z,5.18
2023-02-03T12:33:27.533Z,5.31
2023-02-03T12:36:08.110Z,5.38
2023-02-03T12:38:42.600Z,5.51
2023-02-03T12:41:17.371Z,5.56
2023-02-03T12:43:52.629Z,5.58
2023-02-03T12:46:42.004Z,5.65
2023-02-03T12:49:18.965Z,5.69
2023-02-03T12:51:58.379Z,5.74
2023-02-03T12:54:51.565Z,5.83
2023-02-03T12:57:49.191Z,5.89
2023-02-03T13:00:19.889Z,5.94
2023-02-03T13:03:19.708Z,5.98
2023-02-03T13:06:17.368Z,6.10
2023-02-03T13:08:56.999Z,6.25
2023-02-03T13:11:33.954Z,6.44
2023-02-03T13:14:18.527Z,6.54
2023-02-03T13:16:53.745Z,6.64
2023-02-03T13:19:29.306Z,6.68
2023-02-03T13:21:57.939Z,6.77
2023-02-03T13:24:28.348Z,6.61
2023-02-03T13:27:46.218Z,5.92
2023-02-03T13:43:54.144Z,4.44
2023-02-03T13:47:21.844Z,4.15
2023-02-03T13:50:25.928Z,4.12
2023-02-03T13:53:34.829Z,4.05
2023-02-03T13:57:13.774Z,4.11
2023-02-03T14:12:15.269Z,4.26
2023-02-03T14:16:05.986Z,4.10
2023-02-03T14:27:37.747Z,3.95
2023-02-03T14:30:57.899Z,3.87
2023-02-03T14:34:38.307Z,4.07
2023-02-03T14:38:01.428Z,4.05
2023-02-03T14:41:31.314Z,4.12
2023-02-03T14:45:14.699Z,4.15
2023-02-03T14:48:20.251Z,4.10
2023-02-03T14:51:26.443Z,4.17
2023-02-03T14:54:19.096Z,4.11
2023-02-03T14:57:52.075Z,4.17
2023-02-03T15:01:32.212Z,4.06
2023-02-03T15:04:27.119Z,4.06
2023-02-03T15:07:09.165Z,4.07
2023-02-03T15:09:55.934Z,3.93
2023-02-03T15:12:53.636Z,3.95
2023-02-03T15:15:46.926Z,3.98
2023-02-03T15:19:07.518Z,3.81
2023-02-03T15:21:56.070Z,3.84
2023-02-03T15:24:28.882Z,3.86
2023-02-03T15:27:50.432Z,3.88
2023-02-03T15:31:39.613Z,3.90
2023-02-03T16:07:46.081Z,4.03
2023-02-03T16:10:29.092Z,3.98
2023-02-03T16:13:55.032Z,3.98
2023-02-03T16:17:17.357Z,4.02
2023-02-03T16:20:12.208Z,4.02
2023-02-03T16:23:49.759Z,3.99
2023-02-03T16:27:07.396Z,4.00
2023-02-03T16:30:12.371Z,4.09
2023-02-03T16:34:08.221Z,4.09
2023-02-03T16:37:31.727Z,4.12
2023-02-03T16:40:42.641Z,4.13
2023-02-03T16:43:57.356Z,4.13
2023-02-03T16:47:11.547Z,4.15
2023-02-03T16:50:37.553Z,4.10
2023-02-03T16:53:55.962Z,4.15
2023-02-03T16:57:14.736Z,4.04
2023-02-03T16:59:51.844Z,4.11
2023-02-03T17:02:35.953Z,4.20
2023-02-03T17:05:51.265Z,4.23
2023-02-03T17:08:52.964Z,4.35
2023-02-03T17:11:27.199Z,4.32
2023-02-03T17:14:33.457Z,4.29
2023-02-03T17:17:09.969Z,4.25
2023-02-03T17:20:38.832Z,4.20
2023-02-03T17:23:58.038Z,4.21
2023-02-03T17:27:00.956Z,4.26
2023-02-03T17:29:42.870Z,4.22
2023-02-03T17:32:15.702Z,4.15
2023-02-03T17:35:19.972Z,4.16
2023-02-03T17:37:58.572Z,4.11
2023-02-03T17:55:17.588Z,4.20
2023-02-03T17:57:56.909Z,4.14
2023-02-03T18:00:45.585Z,4.22
2023-02-03T18:03:19.689Z,4.20
2023-02-03T18:06:16.346Z,4.22
2023-02-03T18:09:02.064Z,4.26
2023-02-03T18:11:43.184Z,4.29
2023-02-03T18:15:06.957Z,4.34
2023-02-03T18:17:56.821Z,4.36
2023-02-03T18:20:57.157Z,4.29
2023-02-03T18:24:04.188Z,4.22
2023-02-03T18:27:17.838Z,4.26
2023-02-03T18:30:46.266Z,4.30
2023-02-03T18:34:20.026Z,4.30
2023-02-03T18:38:00.276Z,4.29
2023-02-03T18:40:54.884Z,4.30
2023-02-03T18:43:52.627Z,4.30
2023-02-03T18:47:05.310Z,4.26
2023-02-03T18:50:25.701Z,4.24
2023-02-03T18:53:29.349Z,4.26
2023-02-03T18:57:02.904Z,4.30
2023-02-03T19:00:05.791Z,4.30
2023-02-03T19:03:17.434Z,4.41
2023-02-03T19:06:21.685Z,4.27
2023-02-03T19:19:03.658Z,4.36
2023-02-03T19:25:31.432Z,4.37
2023-02-03T19:28:30.526Z,4.37
2023-02-03T19:31:38.091Z,4.38
2023-02-03T19:34:43.407Z,4.47
2023-02-03T19:38:02.113Z,4.44
2023-02-03T19:41:02.852Z,4.49
2023-02-03T19:43:41.997Z,4.50
2023-02-03T19:46:36.959Z,4.55
2023-02-03T19:49:57.753Z,4.60
2023-02-03T19:52:59.510Z,4.66
2023-02-03T19:55:53.887Z,4.57
2023-02-03T19:58:56.152Z,4.52
2023-02-03T20:01:38.327Z,4.56
2023-02-03T20:04:28.378Z,4.54
2023-02-03T20:07:08.683Z,4.54
2023-02-03T20:10:33.020Z,4.54
2023-02-03T20:13:47.981Z,4.57
2023-02-03T20:16:33.342Z,4.60
2023-02-03T20:19:04.140Z,4.66
2023-02-03T20:21:44.092Z,4.66
2023-02-03T20:25:05.732Z,4.65
2023-02-03T20:27:39.189Z,4.69
2023-02-03T20:30:21.386Z,4.64
2023-02-03T20:32:52.293Z,4.60
2023-02-03T20:35:47.986Z,4.53
2023-02-03T20:38:28.659Z,4.54
2023-02-03T20:41:41.985Z,4.58
2023-02-03T20:44:20.062Z,4.65
2023-02-03T20:46:48.793Z,4.63
2023-02-03T20:49:32.675Z,4.51
2023-02-03T20:52:03.972Z,4.50
2023-02-03T20:54:37.607Z,4.47
2023-02-03T20:57:40.258Z,4.40
2023-02-03T21:01:05.973Z,4.27
2023-02-03T21:03:58.377Z,4.05
2023-02-03T21:06:59.150Z,4.02
2023-02-03T21:09:53.226Z,3.99
2023-02-03T21:13:22.150Z,3.94
2023-02-03T21:16:31.906Z,3.85
2023-02-03T21:19:03.561Z,3.82
2023-02-03T21:21:44.064Z,3.83
2023-02-03T21:24:45.643Z,3.77
2023-02-03T21:27:49.454Z,3.58
2023-02-03T21:30:39.781Z,3.48
2023-02-03T21:33:44.093Z,3.37
2023-02-03T21:36:23.347Z,3.32
2023-02-03T21:38:56.935Z,3.13
2023-02-03T21:41:33.295Z,3.04
2023-02-03T21:44:01.852Z,2.99
2023-02-03T21:46:55.255Z,2.92
2023-02-03T21:49:35.662Z,2.90
2023-02-03T21:52:03.954Z,2.83
2023-02-03T21:54:33.852Z,2.82
2023-02-03T21:57:02.566Z,2.77
2023-02-03T21:59:46.929Z,2.73
2023-02-03T22:02:39.228Z,2.75
2023-02-03T22:05:30.989Z,2.71
2023-02-03T22:07:59.321Z,2.75
2023-02-03T22:10:30.311Z,2.73
2023-02-03T22:12:59.056Z,2.76
2023-02-03T22:15:27.162Z,2.84
2023-02-03T22:18:13.694Z,2.72
2023-02-03T22:20:44.899Z,2.69
2023-02-03T22:23:39.015Z,2.66
2023-02-03T22:26:33.214Z,2.57
2023-02-03T22:29:14.839Z,2.57
2023-02-03T22:31:48.050Z,2.58
2023-02-03T22:34:17.393Z,2.58
2023-02-03T22:36:45.392Z,2.50
2023-02-03T22:39:16.406Z,2.57
2023-02-03T22:41:44.578Z,2.52
2023-02-03T22:44:20.968Z,2.59
2023-02-03T22:46:56.729Z,2.72
2023-02-03T22:49:27.865Z,2.63
2023-02-03T22:53:01.778Z,2.54
2023-02-03T22:56:00.836Z,2.54
2023-02-03T22:58:31.837Z,2.59
2023-02-03T23:01:00.393Z,2.51
2023-02-03T23:03:33.139Z,2.51
2023-02-03T23:06:03.850Z,2.48
2023-02-03T23:08:52.880Z,2.51
2023-02-03T23:11:34.125Z,2.50
2023-02-03T23:14:05.751Z,2.43
2023-02-03T23:16:37.527Z,2.37
2023-02-03T23:19:05.761Z,2.39
2023-02-03T23:21:36.195Z,2.31
2023-02-03T23:24:13.433Z,2.25
2023-02-03T23:26:41.736Z,2.31
2023-02-03T23:29:21.592Z,2.28
2023-02-03T23:32:08.768Z,2.28
2023-02-03T23:35:20.387Z,2.27
2023-02-03T23:38:15.643Z,2.19
2023-02-03T23:41:29.623Z,2.04
2023-02-03T23:44:58.562Z,1.88
2023-02-03T23:48:21.345Z,1.53
2023-02-03T23:51:09.440Z,1.12
2023-02-03T23:54:18.161Z,0.99
2023-02-03T23:56:58.993Z,0.70
